Time;durP1;ratioP1;P1;durP2;ratioP2;P2;SDS_P1;SDS_P2;PMS_P1;PMS_P2;Temp;Humidity;BMP_temperature;BMP_pressure;BME280_temperature;BME280_humidity;BME280_pressure;Samples;Min_cycle;Max_cycle;Signal;HPM_P1;HPM_P2
2023/05/13 00:01:37;;;;;;;11.73;7.78;;;8.80;99.90;;;;;;6274179;22;19992;-95
2023/05/13 00:04:07;;;;;;;16.25;9.15;;;8.70;99.90;;;;;;6276882;22;20059;-94
2023/05/13 00:06:39;;;;;;;12.75;9.00;;;8.70;99.90;;;;;;6303534;22;20003;-95
2023/05/13 00:09:08;;;;;;;14.02;9.20;;;8.70;99.90;;;;;;6276315;22;20007;-96
2023/05/13 00:12:00;;;;;;;23.65;9.73;;;8.70;99.90;;;;;;6275974;22;19994;-96
2023/05/13 00:14:29;;;;;;;16.40;11.00;;;8.70;99.90;;;;;;6256208;22;20007;-96
2023/05/13 00:16:58;;;;;;;19.83;11.60;;;8.70;99.90;;;;;;6252116;22;20018;-95
2023/05/13 00:19:27;;;;;;;16.38;11.27;;;8.70;99.90;;;;;;6242450;22;20099;-95
2023/05/13 00:22:25;;;;;;;18.30;11.13;;;8.70;99.90;;;;;;6274394;22;20012;-95
2023/05/13 00:24:55;;;;;;;16.83;10.90;;;8.60;99.90;;;;;;6301760;22;20012;-94
2023/05/13 00:27:26;;;;;;;20.05;11.35;;;8.70;99.90;;;;;;6299482;22;20023;-95
2023/05/13 00:29:52;;;;;;;18.33;11.75;;;8.70;99.90;;;;;;6269836;22;20071;-95
2023/05/13 00:32:19;;;;;;;17.45;11.02;;;8.70;99.90;;;;;;6263878;22;20000;-95
2023/05/13 00:34:45;;;;;;;17.88;10.50;;;8.70;99.90;;;;;;6262200;22;20063;-95
2023/05/13 00:37:12;;;;;;;16.80;10.52;;;8.70;99.90;;;;;;6264658;22;19995;-96
2023/05/13 00:39:38;;;;;;;21.85;11.85;;;8.60;99.90;;;;;;6266144;22;20011;-95
2023/05/13 00:42:04;;;;;;;19.75;13.23;;;8.70;99.90;;;;;;6277920;22;19995;-95
2023/05/13 00:44:30;;;;;;;22.77;12.60;;;8.70;99.90;;;;;;6267576;22;20004;-95
2023/05/13 00:47:01;;;;;;;22.23;13.18;;;8.70;99.90;;;;;;6263741;22;20007;-95
2023/05/13 00:49:32;;;;;;;20.75;12.68;;;8.70;99.90;;;;;;6263103;22;20003;-96
2023/05/13 00:52:00;;;;;;;24.25;14.02;;;8.70;99.90;;;;;;6266890;22;20382;-95
2023/05/13 00:54:27;;;;;;;23.73;13.77;;;8.70;99.90;;;;;;6293276;22;20012;-95
2023/05/13 00:56:55;;;;;;;24.50;13.98;;;8.70;99.90;;;;;;6267012;22;20058;-96
2023/05/13 00:59:28;;;;;;;19.85;13.48;;;8.70;99.90;;;;;;6266023;22;20011;-96
2023/05/13 01:02:09;;;;;;;19.17;13.15;;;8.70;99.90;;;;;;6265845;22;20338;-95
2023/05/13 01:05:10;;;;;;;;;;;8.70;99.90;;;;;;6268734;22;20051;-95
2023/05/13 01:08:10;;;;;;;18.92;11.85;;;8.70;99.90;;;;;;6179511;22;19899;-94
2023/05/13 01:10:54;;;;;;;23.52;13.80;;;8.60;99.90;;;;;;6261799;22;20007;-93
2023/05/13 01:13:23;;;;;;;18.92;12.05;;;8.60;99.90;;;;;;6263026;22;20014;-95
2023/05/13 01:16:08;;;;;;;18.55;11.02;;;8.60;99.90;;;;;;6248986;22;20004;-94
2023/05/13 01:19:09;;;;;;;16.23;11.30;;;8.60;99.90;;;;;;6272155;22;20051;-94
2023/05/13 01:21:51;;;;;;;15.10;10.00;;;8.60;99.90;;;;;;6272312;22;20039;-96
2023/05/13 01:24:39;;;;;;;17.90;10.93;;;8.60;99.90;;;;;;6250034;22;20031;-96
2023/05/13 01:27:05;;;;;;;14.93;11.10;;;8.60;99.90;;;;;;6268026;22;20003;-94
2023/05/13 01:29:32;;;;;;;15.68;10.10;;;8.50;99.90;;;;;;6258062;22;20019;-95
2023/05/13 01:31:59;;;;;;;16.45;10.15;;;8.50;99.90;;;;;;6263893;22;20003;-94
2023/05/13 01:34:38;;;;;;;17.55;11.07;;;8.50;99.90;;;;;;6298487;22;20019;-94
2023/05/13 01:37:34;;;;;;;16.75;11.57;;;8.40;99.90;;;;;;6297262;22;20038;-95
2023/05/13 01:42:51;;;;;;;17.87;11.77;;;8.50;99.90;;;;;;6361169;22;20105;-94
2023/05/13 01:45:17;;;;;;;21.98;12.02;;;8.50;99.90;;;;;;6347428;22;20011;-94
2023/05/13 01:47:43;;;;;;;15.45;10.55;;;8.50;99.90;;;;;;6343883;22;20015;-94
2023/05/13 01:50:09;;;;;;;15.13;10.27;;;8.50;99.90;;;;;;6354044;22;20006;-96
2023/05/13 01:52:35;;;;;;;16.77;10.10;;;8.40;99.90;;;;;;6348433;22;19999;-95
2023/05/13 01:55:01;;;;;;;15.65;10.30;;;8.40;99.90;;;;;;6347798;22;20302;-95
2023/05/13 01:57:26;;;;;;;14.77;9.95;;;8.40;99.90;;;;;;6344688;22;20007;-95
2023/05/13 01:59:52;;;;;;;17.27;10.30;;;8.40;99.90;;;;;;6343679;22;20029;-94
2023/05/13 02:02:19;;;;;;;14.82;10.25;;;8.40;99.90;;;;;;6345866;22;20006;-94
2023/05/13 02:04:45;;;;;;;15.07;10.30;;;8.40;99.90;;;;;;6346416;22;20003;-94
2023/05/13 02:07:11;;;;;;;11.05;8.43;;;8.30;99.90;;;;;;6359672;22;20013;-96
2023/05/13 02:09:38;;;;;;;12.27;9.35;;;8.30;99.90;;;;;;6351191;22;20009;-95
2023/05/13 02:12:04;;;;;;;12.73;8.60;;;8.30;99.90;;;;;;6348093;22;20098;-95
2023/05/13 02:14:30;;;;;;;10.95;8.75;;;8.30;99.90;;;;;;6345337;22;20003;-94
2023/05/13 02:16:56;;;;;;;14.55;9.18;;;8.20;99.90;;;;;;6346348;22;20070;-96
2023/05/13 02:19:22;;;;;;;12.23;9.00;;;8.20;99.90;;;;;;6353243;22;19999;-94
2023/05/13 02:21:47;;;;;;;12.70;9.02;;;8.20;99.90;;;;;;6346975;22;20333;-94
2023/05/13 02:24:13;;;;;;;11.05;8.60;;;8.20;99.90;;;;;;6343332;22;20018;-96
2023/05/13 02:26:40;;;;;;;14.27;7.95;;;8.20;99.90;;;;;;6346944;22;20007;-95
2023/05/13 02:29:06;;;;;;;10.73;7.55;;;8.20;99.90;;;;;;6345405;22;20007;-95
2023/05/13 02:31:32;;;;;;;9.45;7.30;;;8.20;99.90;;;;;;6344304;22;20077;-95
2023/05/13 02:33:58;;;;;;;8.23;7.00;;;8.20;99.90;;;;;;6342674;22;19995;-95
2023/05/13 02:36:24;;;;;;;9.88;7.40;;;8.10;99.90;;;;;;6344741;22;20051;-94
2023/05/13 02:38:51;;;;;;;9.98;6.82;;;8.10;99.90;;;;;;6345529;22;20003;-96
2023/05/13 02:41:17;;;;;;;12.15;7.50;;;8.10;99.90;;;;;;6348718;22;20019;-93
2023/05/13 02:43:44;;;;;;;8.50;6.93;;;8.10;99.90;;;;;;6298167;22;20034;-95
2023/05/13 02:46:10;;;;;;;7.38;6.18;;;8.10;99.90;;;;;;6291829;22;20011;-95
2023/05/13 02:48:36;;;;;;;9.13;6.97;;;8.10;99.90;;;;;;6292104;22;19999;-95
2023/05/13 02:51:02;;;;;;;8.60;6.82;;;8.10;99.90;;;;;;6297041;22;20011;-94
2023/05/13 02:53:29;;;;;;;11.30;6.97;;;8.10;99.90;;;;;;6304728;22;20011;-94
2023/05/13 02:55:56;;;;;;;12.73;7.97;;;8.10;99.90;;;;;;6304842;22;19999;-94
2023/05/13 02:58:26;;;;;;;12.73;8.43;;;8.10;99.90;;;;;;6302037;22;20010;-94
2023/05/13 03:00:52;;;;;;;11.03;7.00;;;8.10;99.90;;;;;;6303837;22;20003;-94
2023/05/13 03:03:20;;;;;;;14.27;8.10;;;8.00;99.90;;;;;;6305230;22;20062;-96
2023/05/13 03:06:02;;;;;;;10.68;8.10;;;8.00;99.90;;;;;;6307275;22;20134;-95
2023/05/13 03:08:29;;;;;;;10.73;8.15;;;8.00;99.90;;;;;;6301034;22;20003;-95
2023/05/13 03:10:55;;;;;;;12.55;7.70;;;8.00;99.90;;;;;;6299740;22;20027;-95
2023/05/13 03:13:22;;;;;;;12.05;8.35;;;7.90;99.90;;;;;;6326878;22;20022;-93
2023/05/13 03:15:47;;;;;;;12.52;7.93;;;7.90;99.90;;;;;;6303273;22;19995;-95
2023/05/13 03:18:16;;;;;;;10.65;8.57;;;7.90;99.90;;;;;;6304815;22;20005;-94
2023/05/13 03:20:42;;;;;;;11.95;8.15;;;7.90;99.90;;;;;;6330704;22;20058;-95
2023/05/13 03:23:07;;;;;;;11.77;7.75;;;7.80;99.90;;;;;;6303595;22;19983;-95
2023/05/13 03:25:35;;;;;;;13.95;8.25;;;7.80;99.90;;;;;;6302032;22;20010;-96
2023/05/13 03:28:02;;;;;;;12.80;8.88;;;7.80;99.90;;;;;;6301475;22;20003;-95
2023/05/13 03:30:32;;;;;;;14.13;9.93;;;7.80;99.90;;;;;;6301055;22;20003;-95
2023/05/13 03:32:58;;;;;;;10.63;8.55;;;7.80;99.90;;;;;;6305431;22;20014;-96
2023/05/13 03:35:29;;;;;;;15.30;8.48;;;7.80;99.90;;;;;;6309012;22;20042;-95
2023/05/13 03:38:06;;;;;;;13.80;8.82;;;7.80;99.90;;;;;;6304477;22;20003;-95
2023/05/13 03:40:32;;;;;;;12.27;8.35;;;7.80;99.90;;;;;;6330212;22;20010;-95
2023/05/13 03:43:01;;;;;;;12.68;9.02;;;7.80;99.90;;;;;;6348192;22;20014;-95
2023/05/13 03:45:27;;;;;;;10.80;8.57;;;7.70;99.90;;;;;;6331204;22;20003;-94
2023/05/13 03:47:56;;;;;;;13.45;8.82;;;7.80;99.90;;;;;;6355557;22;20024;-94
2023/05/13 03:50:23;;;;;;;14.27;8.30;;;7.80;99.90;;;;;;6356154;22;20010;-94
2023/05/13 03:52:52;;;;;;;15.45;8.60;;;7.70;99.90;;;;;;6357228;22;20081;-95
2023/05/13 03:55:28;;;;;;;12.18;7.97;;;7.70;99.90;;;;;;6357728;22;20013;-94
2023/05/13 03:57:54;;;;;;;10.68;8.18;;;7.70;99.90;;;;;;6358894;22;20070;-96
2023/05/13 04:00:21;;;;;;;10.60;7.95;;;7.70;99.90;;;;;;6356414;22;20010;-95
2023/05/13 04:02:47;;;;;;;12.20;8.60;;;7.70;99.90;;;;;;6354137;22;19998;-95
2023/05/13 04:05:13;;;;;;;11.80;8.40;;;7.70;99.90;;;;;;6353630;22;20018;-96
2023/05/13 04:07:42;;;;;;;11.90;8.38;;;7.60;99.90;;;;;;6347356;22;19999;-96
2023/05/13 04:10:11;;;;;;;10.60;8.40;;;7.70;99.90;;;;;;6348801;22;20003;-95
2023/05/13 04:12:39;;;;;;;12.13;8.25;;;7.70;99.90;;;;;;6350431;22;19995;-96
2023/05/13 04:15:08;;;;;;;12.35;8.43;;;7.70;99.90;;;;;;6352011;22;20054;-95
2023/05/13 04:17:36;;;;;;;11.18;8.75;;;7.70;99.90;;;;;;6353748;22;20438;-96
2023/05/13 04:20:03;;;;;;;10.30;7.88;;;7.70;99.90;;;;;;6351229;22;20045;-96
2023/05/13 04:22:29;;;;;;;12.98;8.35;;;7.70;99.90;;;;;;6352272;22;20006;-95
2023/05/13 04:24:57;;;;;;;11.35;8.30;;;7.70;99.90;;;;;;6351986;22;19999;-96
2023/05/13 04:27:23;;;;;;;11.90;7.90;;;7.60;99.90;;;;;;6356044;22;19999;-95
2023/05/13 04:29:50;;;;;;;12.20;8.48;;;7.70;99.90;;;;;;6359916;22;20007;-96
2023/05/13 04:32:22;;;;;;;12.05;8.13;;;7.60;99.90;;;;;;6358265;22;20022;-96
2023/05/13 04:34:48;;;;;;;13.88;8.13;;;7.60;99.90;;;;;;6355920;22;20002;-96
2023/05/13 04:37:17;;;;;;;11.75;8.20;;;7.60;99.90;;;;;;6353878;22;19995;-96
2023/05/13 04:39:46;;;;;;;13.63;8.48;;;7.60;99.90;;;;;;6357241;22;20007;-96
2023/05/13 04:42:15;;;;;;;13.95;9.30;;;7.60;99.90;;;;;;6351752;22;20074;-96
2023/05/13 04:44:41;;;;;;;11.55;8.27;;;7.50;99.90;;;;;;6355651;22;20009;-96
2023/05/13 04:47:07;;;;;;;12.35;7.72;;;7.50;99.90;;;;;;6351331;22;20010;-95
2023/05/13 04:49:33;;;;;;;11.48;8.13;;;7.50;99.90;;;;;;6349459;22;20003;-96
2023/05/13 04:52:01;;;;;;;12.85;8.48;;;7.50;99.90;;;;;;6348959;22;20009;-96
2023/05/13 04:54:28;;;;;;;12.02;9.02;;;7.50;99.90;;;;;;6350724;22;19998;-96
2023/05/13 04:56:57;;;;;;;11.20;8.27;;;7.50;99.90;;;;;;6350313;22;20101;-96
2023/05/13 04:59:23;;;;;;;12.25;8.38;;;7.40;99.90;;;;;;6358310;22;20014;-96
2023/05/13 05:01:53;;;;;;;11.05;8.18;;;7.40;99.90;;;;;;6363063;22;20010;-95
2023/05/13 05:04:19;;;;;;;12.23;8.20;;;7.50;99.90;;;;;;6355869;22;19998;-95
2023/05/13 05:06:45;;;;;;;12.43;8.20;;;7.40;99.90;;;;;;6346861;22;20385;-96
2023/05/13 05:09:11;;;;;;;11.85;7.63;;;7.40;99.90;;;;;;6353526;22;20029;-95
2023/05/13 05:11:37;;;;;;;9.25;7.25;;;7.40;99.90;;;;;;6352840;22;20014;-96
2023/05/13 05:14:04;;;;;;;13.63;8.15;;;7.50;99.90;;;;;;6349896;22;20010;-95
2023/05/13 05:16:30;;;;;;;10.30;7.35;;;7.50;99.90;;;;;;6351340;22;20003;-96
2023/05/13 05:18:56;;;;;;;13.38;7.97;;;7.60;99.90;;;;;;6360561;22;20029;-95
2023/05/13 05:21:22;;;;;;;11.98;8.45;;;7.60;99.90;;;;;;6337416;22;20007;-95
2023/05/13 05:23:49;;;;;;;13.65;8.27;;;7.60;99.90;;;;;;6362737;22;19997;-95
2023/05/13 05:26:15;;;;;;;9.60;7.43;;;7.60;99.90;;;;;;6360480;22;20006;-96
2023/05/13 05:28:42;;;;;;;14.20;8.52;;;7.60;99.90;;;;;;6353472;22;20334;-95
2023/05/13 05:31:09;;;;;;;12.95;8.82;;;7.60;99.90;;;;;;6353745;22;20026;-96
2023/05/13 05:34:01;;;;;;;13.55;8.82;;;7.70;99.90;;;;;;6356504;22;20011;-95
2023/05/13 05:36:28;;;;;;;13.55;7.65;;;7.70;99.90;;;;;;6358460;22;20006;-95
2023/05/13 05:38:54;;;;;;;11.00;8.40;;;7.70;99.90;;;;;;6355276;22;19999;-96
2023/05/13 05:41:21;;;;;;;12.18;8.75;;;7.80;99.90;;;;;;6326180;22;20022;-96
2023/05/13 05:43:47;;;;;;;24.13;10.02;;;7.80;99.90;;;;;;6349847;22;20027;-94
2023/05/13 05:46:15;;;;;;;11.35;7.97;;;7.80;99.90;;;;;;6347296;22;20052;-96
2023/05/13 05:48:41;;;;;;;14.05;8.40;;;7.80;99.90;;;;;;6346539;22;20389;-95
2023/05/13 05:51:14;;;;;;;15.02;8.55;;;7.80;99.90;;;;;;6352322;22;19994;-96
2023/05/13 05:53:48;;;;;;;11.02;8.30;;;7.80;99.90;;;;;;6332487;22;20007;-96
2023/05/13 05:56:26;;;;;;;9.70;7.60;;;7.80;99.90;;;;;;6365357;22;20003;-96
2023/05/13 05:58:58;;;;;;;10.30;7.45;;;7.80;99.90;;;;;;6329817;22;20002;-95
2023/05/13 06:01:24;;;;;;;10.90;7.93;;;7.80;99.90;;;;;;6357642;22;20010;-95
2023/05/13 06:03:50;;;;;;;11.48;7.38;;;7.80;99.90;;;;;;6354024;22;19999;-96
2023/05/13 06:06:21;;;;;;;13.20;7.40;;;7.80;99.90;;;;;;6358641;22;20114;-95
2023/05/13 06:08:48;;;;;;;12.77;8.35;;;7.80;99.90;;;;;;6352634;22;20470;-95
2023/05/13 06:11:17;;;;;;;10.88;7.18;;;7.80;99.90;;;;;;6355758;22;19999;-96
2023/05/13 06:13:44;;;;;;;10.23;7.65;;;7.80;99.90;;;;;;6356517;22;20010;-96
2023/05/13 06:16:13;;;;;;;10.93;7.55;;;7.90;99.90;;;;;;6355741;22;19998;-95
2023/05/13 06:18:39;;;;;;;11.73;7.82;;;7.90;99.90;;;;;;6355030;22;20003;-96
2023/05/13 06:21:06;;;;;;;10.43;7.25;;;7.90;99.90;;;;;;6353872;22;20010;-96
2023/05/13 06:23:32;;;;;;;11.48;7.78;;;8.00;99.90;;;;;;6355216;22;19999;-96
2023/05/13 06:25:58;;;;;;;13.38;7.68;;;7.90;99.90;;;;;;6332073;22;20006;-96
2023/05/13 06:28:28;;;;;;;15.13;8.13;;;8.00;99.90;;;;;;6365593;22;20021;-94
2023/05/13 06:30:56;;;;;;;9.32;6.85;;;8.00;99.90;;;;;;6360926;22;19991;-96
2023/05/13 06:33:26;;;;;;;10.88;7.25;;;8.00;99.90;;;;;;6359013;22;19999;-95
2023/05/13 06:35:52;;;;;;;10.20;6.32;;;8.10;99.90;;;;;;6360167;22;20026;-95
2023/05/13 06:38:19;;;;;;;8.48;7.05;;;8.10;99.90;;;;;;6358549;22;20002;-96
2023/05/13 06:40:45;;;;;;;9.77;7.50;;;8.10;99.90;;;;;;6356142;22;20005;-95
2023/05/13 06:43:18;;;;;;;10.57;6.97;;;8.10;99.90;;;;;;6355310;22;20011;-95
2023/05/13 06:45:48;;;;;;;9.77;6.78;;;8.10;99.90;;;;;;6356707;22;20007;-96
2023/05/13 06:48:14;;;;;;;10.00;7.15;;;8.10;99.90;;;;;;6354181;22;19999;-96
2023/05/13 06:50:40;;;;;;;9.65;7.43;;;8.20;99.90;;;;;;6356363;22;20003;-96
2023/05/13 06:53:10;;;;;;;12.55;7.00;;;8.20;99.90;;;;;;6358312;22;20010;-95
2023/05/13 06:55:40;;;;;;;8.07;6.67;;;8.20;99.90;;;;;;6358432;22;20011;-96
2023/05/13 06:58:09;;;;;;;9.82;6.80;;;8.20;99.90;;;;;;6361343;22;20030;-95
2023/05/13 07:00:41;;;;;;;10.43;6.88;;;8.30;99.90;;;;;;6360716;22;20025;-95
2023/05/13 07:03:16;;;;;;;9.45;6.50;;;8.30;99.90;;;;;;6362053;22;19999;-96
2023/05/13 07:05:45;;;;;;;9.80;7.05;;;8.30;99.90;;;;;;6362496;22;20010;-95
2023/05/13 07:08:17;;;;;;;8.27;6.43;;;8.30;99.90;;;;;;6365471;22;19994;-96
2023/05/13 07:10:46;;;;;;;11.45;7.20;;;8.40;99.90;;;;;;6364147;22;20258;-95
2023/05/13 07:13:21;;;;;;;10.60;7.22;;;8.40;99.90;;;;;;6359864;22;20007;-95
2023/05/13 07:15:47;;;;;;;11.20;7.45;;;8.40;99.90;;;;;;6334402;22;20002;-95
2023/05/13 07:18:16;;;;;;;11.95;8.25;;;8.40;99.90;;;;;;6355476;22;20034;-95
2023/05/13 07:20:45;;;;;;;11.10;7.00;;;8.40;99.90;;;;;;6360300;22;20093;-95
2023/05/13 07:23:25;;;;;;;13.68;7.55;;;8.40;99.90;;;;;;6361813;22;19999;-96
2023/05/13 07:25:55;;;;;;;12.18;8.48;;;8.40;99.90;;;;;;6358512;22;20069;-95
2023/05/13 07:28:21;;;;;;;14.02;8.30;;;8.50;99.90;;;;;;6358841;22;20009;-96
2023/05/13 07:30:54;;;;;;;15.30;7.47;;;8.60;99.90;;;;;;6359764;22;20033;-96
2023/05/13 07:33:22;;;;;;;11.05;6.70;;;8.70;99.90;;;;;;6357620;22;20014;-95
2023/05/13 07:35:50;;;;;;;9.88;6.55;;;8.70;99.90;;;;;;6356503;22;20017;-94
2023/05/13 07:38:18;;;;;;;12.23;7.28;;;8.80;99.90;;;;;;6307931;22;20011;-95
2023/05/13 07:41:01;;;;;;;11.55;7.82;;;8.80;99.90;;;;;;6360605;22;20015;-96
2023/05/13 07:43:27;;;;;;;10.60;7.45;;;8.80;99.90;;;;;;6300124;22;20011;-95
2023/05/13 07:45:56;;;;;;;13.20;7.97;;;8.90;99.90;;;;;;6276863;22;20075;-95
2023/05/13 07:48:31;;;;;;;14.65;7.68;;;8.90;99.90;;;;;;6324912;22;19995;-95
2023/05/13 07:50:59;;;;;;;10.48;7.55;;;9.00;99.90;;;;;;6328691;22;20086;-95
2023/05/13 07:53:27;;;;;;;14.45;6.95;;;9.10;99.90;;;;;;6330727;22;19995;-95
2023/05/13 07:55:55;;;;;;;11.07;7.50;;;9.10;99.90;;;;;;6302377;22;20311;-96
2023/05/13 07:58:22;;;;;;;9.23;6.03;;;9.20;99.90;;;;;;6246496;22;20003;-96
2023/05/13 08:00:48;;;;;;;11.30;7.28;;;9.20;99.90;;;;;;6294637;22;20007;-95
2023/05/13 08:03:17;;;;;;;12.10;6.75;;;9.20;99.90;;;;;;6298535;22;20006;-96
2023/05/13 08:05:43;;;;;;;11.18;6.53;;;9.20;99.90;;;;;;6269229;22;20012;-95
2023/05/13 08:08:10;;;;;;;11.77;6.60;;;9.30;99.90;;;;;;6297676;22;20010;-96
2023/05/13 08:10:36;;;;;;;10.63;6.82;;;9.30;99.90;;;;;;6265289;22;20011;-94
2023/05/13 08:13:01;;;;;;;8.45;6.15;;;9.30;99.90;;;;;;6285565;22;20065;-94
2023/05/13 08:15:27;;;;;;;10.68;6.75;;;9.40;99.90;;;;;;6287536;22;20091;-95
2023/05/13 08:17:53;;;;;;;10.20;6.10;;;9.40;99.90;;;;;;6289613;22;20013;-95
2023/05/13 08:20:25;;;;;;;8.20;6.10;;;9.50;99.90;;;;;;6293964;22;20014;-95
2023/05/13 08:22:52;;;;;;;11.90;6.18;;;9.70;99.90;;;;;;6323147;22;19999;-94
2023/05/13 08:25:24;;;;;;;9.35;5.72;;;9.70;99.90;;;;;;6303037;22;20026;-96
2023/05/13 08:27:49;;;;;;;7.80;5.13;;;9.80;99.90;;;;;;6279809;22;20000;-95
2023/05/13 08:30:15;;;;;;;8.15;5.55;;;9.80;99.90;;;;;;6308117;22;20042;-96
2023/05/13 08:32:41;;;;;;;12.13;5.95;;;9.90;99.90;;;;;;6307478;22;20011;-96
2023/05/13 08:35:07;;;;;;;8.90;5.18;;;10.00;99.90;;;;;;6305343;22;20031;-96
2023/05/13 08:37:34;;;;;;;10.73;5.70;;;10.10;99.90;;;;;;6333040;22;19984;-95
2023/05/13 08:40:03;;;;;;;8.85;5.43;;;10.10;99.90;;;;;;6307740;22;20042;-96
2023/05/13 08:42:32;;;;;;;7.45;4.70;;;10.20;99.90;;;;;;6316601;22;20023;-95
2023/05/13 08:44:59;;;;;;;6.38;4.68;;;10.30;99.90;;;;;;6341933;22;19991;-95
2023/05/13 08:47:44;;;;;;;6.10;4.70;;;10.30;99.90;;;;;;6367469;22;19994;-96
2023/05/13 08:50:12;;;;;;;7.97;4.72;;;10.30;99.90;;;;;;6366846;22;20019;-96
2023/05/13 08:52:38;;;;;;;7.90;5.13;;;10.40;99.90;;;;;;6362290;22;20007;-96
2023/05/13 08:55:07;;;;;;;5.45;4.70;;;10.50;99.90;;;;;;6363768;22;20002;-95
2023/05/13 08:57:32;;;;;;;5.72;4.13;;;10.50;99.90;;;;;;6355456;22;20007;-96
2023/05/13 08:59:58;;;;;;;9.85;5.28;;;10.50;99.90;;;;;;6330458;22;20058;-95
2023/05/13 09:02:24;;;;;;;10.35;4.70;;;10.50;99.90;;;;;;6355091;22;20006;-95
2023/05/13 09:04:55;;;;;;;5.97;4.60;;;10.50;99.90;;;;;;6357048;22;19999;-96
2023/05/13 09:07:29;;;;;;;6.80;4.60;;;10.50;99.90;;;;;;6359636;22;19999;-96
2023/05/13 09:15:36;;;;;;;6.47;4.32;;;10.60;99.90;;;;;;6392583;22;20064;-95
2023/05/13 09:18:06;;;;;;;7.10;4.47;;;10.70;99.90;;;;;;6394877;22;19998;-94
2023/05/13 09:25:46;;;;;;;6.47;4.38;;;10.90;99.90;;;;;;6369887;22;20084;-96
2023/05/13 09:28:14;;;;;;;5.43;3.97;;;10.80;99.90;;;;;;6356189;22;20074;-95
2023/05/13 09:30:41;;;;;;;8.85;4.28;;;10.90;99.90;;;;;;6356838;22;19998;-95
2023/05/13 09:33:21;;;;;;;7.43;4.60;;;11.00;99.90;;;;;;6337016;22;20049;-96
2023/05/13 09:35:51;;;;;;;7.50;3.97;;;11.00;99.90;;;;;;6352573;22;20006;-95
2023/05/13 09:38:24;;;;;;;4.70;4.20;;;11.10;99.90;;;;;;6354540;22;19998;-95
2023/05/13 09:40:56;;;;;;;6.03;4.18;;;11.20;99.90;;;;;;6361109;22;20014;-96
2023/05/13 09:43:32;;;;;;;5.15;4.03;;;11.30;99.90;;;;;;6353704;22;19998;-95
2023/05/13 09:46:07;;;;;;;4.75;3.80;;;11.40;99.90;;;;;;6357972;22;20002;-95
2023/05/13 09:48:33;;;;;;;5.07;3.45;;;11.40;99.90;;;;;;6358907;22;20006;-96
2023/05/13 09:51:04;;;;;;;4.88;3.92;;;11.50;99.90;;;;;;6360499;22;19998;-96
2023/05/13 09:53:32;;;;;;;4.40;3.42;;;11.60;99.90;;;;;;6360212;22;20322;-94
2023/05/13 09:55:59;;;;;;;5.55;3.63;;;11.70;99.90;;;;;;6361482;22;20002;-95
2023/05/13 09:59:09;;;;;;;6.28;4.00;;;11.80;99.90;;;;;;6363446;22;20057;-95
2023/05/13 10:01:37;;;;;;;8.87;4.13;;;11.80;99.90;;;;;;6362702;22;20015;-96
2023/05/13 10:04:08;;;;;;;4.43;3.78;;;11.90;99.90;;;;;;6344641;22;20228;-96
2023/05/13 10:06:42;;;;;;;6.13;3.70;;;12.00;99.90;;;;;;6369307;22;20042;-96
2023/05/13 10:09:12;;;;;;;7.65;4.40;;;12.10;99.90;;;;;;6363756;22;20038;-96
2023/05/13 10:14:32;;;;;;;5.78;4.20;;;12.20;99.90;;;;;;6369263;22;20014;-94
2023/05/13 10:16:59;;;;;;;5.22;3.95;;;12.20;99.90;;;;;;6357541;22;20371;-95
2023/05/13 10:19:27;;;;;;;6.25;3.70;;;12.20;99.90;;;;;;6354676;22;20046;-95
2023/05/13 10:21:53;;;;;;;6.25;3.88;;;12.30;99.90;;;;;;6354359;22;19998;-95
2023/05/13 10:24:21;;;;;;;4.50;3.70;;;12.40;99.90;;;;;;6354768;22;20000;-95
2023/05/13 10:26:51;;;;;;;4.93;4.07;;;12.50;99.90;;;;;;6359830;22;20033;-96
2023/05/13 10:29:20;;;;;;;9.50;3.65;;;12.50;99.90;;;;;;6353744;22;20009;-96
2023/05/13 10:34:32;;;;;;;4.88;3.53;;;12.60;99.90;;;;;;6350658;22;20019;-95
2023/05/13 10:37:01;;;;;;;5.28;4.00;;;12.70;99.90;;;;;;6352340;22;20003;-94
2023/05/13 11:07:40;;;;;;;4.75;3.40;;;14.90;99.90;;;;;;6375610;22;20037;-96
2023/05/13 11:10:28;;;;;;;7.82;3.55;;;15.10;99.90;;;;;;6359989;22;20430;-96
2023/05/13 11:13:10;;;;;;;5.45;4.43;;;15.30;99.90;;;;;;6365460;22;20010;-96
2023/05/13 11:15:51;;;;;;;7.00;4.00;;;15.70;99.90;;;;;;6365680;22;20066;-95
2023/05/13 11:26:55;;;;;;;5.60;3.90;;;16.20;97.20;;;;;;6335737;22;20022;-94
2023/05/13 11:37:44;;;;;;;5.68;3.90;;;16.90;94.40;;;;;;6293414;22;20054;-95
2023/05/13 11:57:33;;;;;;;5.53;3.87;;;17.60;90.90;;;;;;6343860;22;20052;31
2023/05/13 12:00:05;;;;;;;6.97;4.00;;;17.80;90.40;;;;;;6367913;22;20318;-96
2023/05/13 12:02:36;;;;;;;4.93;4.05;;;18.10;90.10;;;;;;6302715;22;20022;-94
2023/05/13 14:16:54;;;;;;;3.22;2.50;;;23.30;63.40;;;;;;6372922;22;20070;-95
2023/05/13 14:50:14;;;;;;;2.85;2.38;;;24.20;60.10;;;;;;6306506;22;20052;-95
2023/05/13 14:53:34;;;;;;;2.72;2.47;;;24.20;59.50;;;;;;6356372;22;20056;-95
2023/05/13 14:56:18;;;;;;;3.55;2.80;;;24.10;59.80;;;;;;6332937;22;20006;-94
2023/05/13 14:59:34;;;;;;;4.75;3.00;;;24.00;60.40;;;;;;6312844;22;19991;-96
2023/05/13 15:40:02;;;;;;;6.53;5.05;;;24.40;60.20;;;;;;6367623;22;20087;-95
2023/05/13 15:45:11;;;;;;;10.15;5.32;;;23.90;59.40;;;;;;6325405;22;20038;-96
2023/05/13 15:47:37;;;;;;;6.28;5.13;;;23.70;60.00;;;;;;6297099;22;20010;-94
2023/05/13 15:50:03;;;;;;;6.32;4.97;;;23.60;60.20;;;;;;6292336;22;20027;-95
2023/05/13 15:52:31;;;;;;;7.13;4.78;;;23.50;60.40;;;;;;6299505;22;20028;-95
2023/05/13 15:55:00;;;;;;;8.20;5.03;;;23.40;60.60;;;;;;6294842;22;20003;-95
2023/05/13 15:57:26;;;;;;;6.82;4.70;;;23.30;60.60;;;;;;6298383;22;19999;-95
2023/05/13 15:59:53;;;;;;;6.90;5.22;;;23.20;60.70;;;;;;6298511;22;20032;-95
2023/05/13 16:02:20;;;;;;;7.50;4.55;;;23.30;61.00;;;;;;6302978;22;20063;-95
2023/05/13 16:04:46;;;;;;;9.52;6.82;;;23.40;60.80;;;;;;6307920;22;19991;-95
2023/05/13 16:07:12;;;;;;;9.48;7.80;;;23.50;60.60;;;;;;6296590;22;20083;-96
2023/05/13 16:09:44;;;;;;;15.63;8.55;;;23.50;60.30;;;;;;6295928;22;20011;-96
2023/05/13 16:12:33;;;;;;;9.02;6.05;;;23.40;60.80;;;;;;6298330;22;19999;-96
2023/05/13 16:14:59;;;;;;;9.48;5.60;;;23.50;61.00;;;;;;6293956;22;20060;-95
2023/05/13 16:17:26;;;;;;;33.53;14.15;;;23.50;60.80;;;;;;6323305;22;20011;-96
2023/05/13 16:19:53;;;;;;;10.57;6.55;;;23.50;61.00;;;;;;6269473;22;20007;-96
2023/05/13 16:22:36;;;;;;;52.40;21.20;;;23.30;60.90;;;;;;6298718;22;20135;-96
2023/05/13 16:25:04;;;;;;;11.98;6.53;;;23.30;61.10;;;;;;6295363;22;19992;-96
2023/05/13 16:27:37;;;;;;;10.77;4.97;;;23.30;61.30;;;;;;6296862;22;20000;-94
2023/05/13 16:30:06;;;;;;;7.38;5.65;;;23.40;61.10;;;;;;6245732;22;20031;-94
2023/05/13 16:32:46;;;;;;;60.67;22.05;;;23.30;60.90;;;;;;6268550;22;20019;-95
2023/05/13 16:35:13;;;;;;;9.30;6.53;;;23.30;61.20;;;;;;6285246;22;20007;-95
2023/05/13 16:37:43;;;;;;;16.05;9.45;;;23.40;61.00;;;;;;6240655;22;20000;-95
2023/05/13 16:40:13;;;;;;;25.13;12.57;;;23.40;60.40;;;;;;6269067;22;20031;-96
2023/05/13 16:42:45;;;;;;;29.77;11.50;;;23.30;60.60;;;;;;6265557;22;20055;-96
2023/05/13 16:45:11;;;;;;;64.68;19.50;;;23.20;60.80;;;;;;6265779;22;20016;-95
2023/05/13 16:47:37;;;;;;;8.02;5.25;;;23.00;61.00;;;;;;6265329;22;20008;-96
2023/05/13 16:50:03;;;;;;;18.88;9.25;;;22.90;61.20;;;;;;6266530;22;20000;-96
2023/05/13 16:52:34;;;;;;;6.68;5.20;;;22.70;61.50;;;;;;6260520;22;20008;-96
2023/05/13 16:55:00;;;;;;;8.80;5.20;;;22.50;62.10;;;;;;6253092;22;20034;-95
2023/05/13 16:57:26;;;;;;;6.20;4.78;;;22.30;62.50;;;;;;6257147;22;20007;-96
2023/05/13 16:59:52;;;;;;;6.32;4.97;;;22.10;63.10;;;;;;6258381;22;20092;-96
2023/05/13 17:02:27;;;;;;;8.60;5.18;;;22.10;63.60;;;;;;6255097;22;20429;-96
2023/05/13 17:04:53;;;;;;;7.93;5.65;;;21.80;64.00;;;;;;6258015;22;20007;-94
2023/05/13 17:07:19;;;;;;;7.60;5.38;;;21.80;64.50;;;;;;6261219;22;20004;-95
2023/05/13 17:09:45;;;;;;;9.35;5.47;;;21.70;64.30;;;;;;6262227;22;20007;-96
2023/05/13 17:12:11;;;;;;;8.35;6.15;;;21.70;64.50;;;;;;6258907;22;20003;-94
2023/05/13 17:14:44;;;;;;;7.57;5.05;;;21.60;64.70;;;;;;6248339;22;20019;-96
2023/05/13 17:17:10;;;;;;;7.85;5.13;;;21.60;64.90;;;;;;6273892;22;20007;-94
2023/05/13 17:19:35;;;;;;;7.97;5.63;;;21.60;65.10;;;;;;6259801;22;20094;-95
2023/05/13 17:22:01;;;;;;;6.95;5.10;;;21.50;65.40;;;;;;6265167;22;20012;-96
2023/05/13 17:24:30;;;;;;;6.03;4.72;;;21.50;65.60;;;;;;6271227;22;19999;-95
2023/05/13 17:26:59;;;;;;;5.80;4.30;;;21.40;65.70;;;;;;6230614;22;20012;-95
2023/05/13 17:29:25;;;;;;;5.72;5.00;;;21.30;66.10;;;;;;6258083;22;20008;-94
2023/05/13 17:31:51;;;;;;;7.47;5.28;;;21.20;66.50;;;;;;6266145;22;20071;-94
2023/05/13 17:34:18;;;;;;;5.90;4.93;;;21.00;66.50;;;;;;6258248;22;20067;-96
2023/05/13 17:36:50;;;;;;;9.13;5.90;;;20.90;67.00;;;;;;6258245;22;20062;-95
2023/05/13 17:39:16;;;;;;;6.55;5.22;;;20.90;67.20;;;;;;6249368;22;20011;-96
2023/05/13 17:41:48;;;;;;;7.30;4.97;;;20.80;67.30;;;;;;6220588;22;20027;-96
2023/05/13 17:44:18;;;;;;;4.70;3.88;;;20.80;67.70;;;;;;6291521;22;20091;-96